createdAt,value
2018-05-25T00:01:20.121Z,54.2
2018-05-25T00:06:17.205Z,54.2
2018-05-25T00:11:14.383Z,54.2
2018-05-25T00:16:11.268Z,54.1
2018-05-25T00:21:08.275Z,54
2018-05-25T00:26:05.613Z,54
2018-05-25T00:31:02.629Z,54
2018-05-25T00:35:59.948Z,54
2018-05-25T00:40:57.008Z,54.1
2018-05-25T00:45:54.196Z,54.1
2018-05-25T00:50:51.196Z,54.1
2018-05-25T00:55:48.184Z,54.1
2018-05-25T01:00:45.295Z,54.1
2018-05-25T01:05:42.271Z,54
2018-05-25T01:10:39.513Z,54
2018-05-25T01:15:36.631Z,54
2018-05-25T01:20:33.834Z,54
2018-05-25T01:25:30.332Z,54
2018-05-25T01:30:27.276Z,54
2018-05-25T01:35:24.478Z,54
2018-05-25T01:40:21.488Z,54
2018-05-25T01:45:18.506Z,54
2018-05-25T01:50:15.602Z,54
2018-05-25T01:55:12.944Z,54
2018-05-25T02:00:09.693Z,54
2018-05-25T02:05:06.857Z,54
2018-05-25T02:10:03.974Z,54
2018-05-25T02:15:01.019Z,54
2018-05-25T02:19:57.837Z,54
2018-05-25T02:24:54.843Z,54
2018-05-25T02:29:51.328Z,53.9
2018-05-25T02:34:48.395Z,53.9
2018-05-25T02:39:45.220Z,53.9
2018-05-25T02:44:42.211Z,53.9
2018-05-25T02:49:39.282Z,53.9
2018-05-25T02:54:36.297Z,53.9
2018-05-25T02:59:33.571Z,53.9
2018-05-25T03:04:30.594Z,53.9
2018-05-25T03:09:27.754Z,53.9
2018-05-25T03:14:24.750Z,53.9
2018-05-25T03:19:21.790Z,53.8
2018-05-25T03:24:18.982Z,53.8
2018-05-25T03:29:16.067Z,53.8
2018-05-25T03:34:12.346Z,53.8
2018-05-25T03:39:09.343Z,53.8
2018-05-25T03:44:06.528Z,53.8
2018-05-25T03:49:03.582Z,53.8
2018-05-25T03:54:00.594Z,53.8
2018-05-25T03:58:57.750Z,53.8
2018-05-25T04:03:54.534Z,53.8
2018-05-25T04:08:51.586Z,53.8
2018-05-25T04:13:48.597Z,53.8
2018-05-25T04:18:45.963Z,53.9
2018-05-25T04:23:43.052Z,53.9
2018-05-25T04:28:40.284Z,53.8
2018-05-25T04:33:37.478Z,53.9
2018-05-25T04:38:34.858Z,53.9
2018-05-25T04:43:31.890Z,53.9
2018-05-25T04:48:28.788Z,53.9
2018-05-25T04:53:25.854Z,53.9
2018-05-25T04:58:23.259Z,53.9
2018-05-25T05:03:20.160Z,53.9
2018-05-25T05:08:18.003Z,53.9
2018-05-25T05:13:15.062Z,54
2018-05-25T05:18:12.285Z,54
2018-05-25T05:23:09.613Z,54
2018-05-25T05:28:06.810Z,54.1
2018-05-25T05:33:03.752Z,54.1
2018-05-25T05:38:00.869Z,54.1
2018-05-25T05:42:57.883Z,54.2
2018-05-25T05:47:54.977Z,54.2
2018-05-25T05:52:52.439Z,54.3
2018-05-25T05:57:49.634Z,54.3
2018-05-25T06:02:46.980Z,54.4
2018-05-25T06:07:44.265Z,54.4
2018-05-25T06:12:41.420Z,54.5
2018-05-25T06:17:38.756Z,54.5
2018-05-25T06:22:36.189Z,54.6
2018-05-25T06:27:33.085Z,54.6
2018-05-25T06:32:30.151Z,54.7
2018-05-25T06:37:27.064Z,54.7
2018-05-25T06:42:24.083Z,54.8
2018-05-25T06:47:21.308Z,54.8
2018-05-25T06:52:18.533Z,54.9
2018-05-25T06:57:14.930Z,54.9
2018-05-25T07:02:12.105Z,55
2018-05-25T07:07:09.450Z,55
2018-05-25T07:12:06.616Z,55.1
2018-05-25T07:17:03.958Z,55.1
2018-05-25T07:22:01.231Z,55.2
2018-05-25T07:26:58.430Z,55.2
2018-05-25T07:31:55.687Z,55.3
2018-05-25T07:36:52.933Z,55.3
2018-05-25T07:41:49.825Z,55.4
2018-05-25T07:46:46.864Z,55.4
2018-05-25T07:51:44.051Z,55.4
2018-05-25T07:56:41.089Z,55.5
2018-05-25T08:01:38.199Z,55.6
2018-05-25T08:06:35.391Z,55.6
2018-05-25T08:11:32.547Z,55.6
2018-05-25T08:16:29.862Z,55.7
2018-05-25T08:21:26.878Z,55.7
2018-05-25T08:26:24.207Z,55.8
2018-05-25T08:31:21.262Z,55.8
2018-05-25T08:36:18.371Z,55.8
2018-05-25T08:41:15.574Z,55.9
2018-05-25T08:46:12.647Z,55.9
2018-05-25T08:51:09.960Z,56
2018-05-25T08:56:07.229Z,56
2018-05-25T09:01:04.368Z,56
2018-05-25T09:06:01.719Z,56.1
2018-05-25T09:10:58.767Z,56.1
2018-05-25T09:15:55.896Z,56.2
2018-05-25T09:20:53.136Z,56.2
2018-05-25T09:25:50.118Z,56.2
2018-05-25T09:30:47.428Z,56.1
2018-05-25T09:35:44.765Z,56.2
2018-05-25T09:40:41.911Z,56.3
2018-05-25T09:45:39.167Z,56.3
2018-05-25T09:50:36.450Z,56.3
2018-05-25T09:55:33.308Z,56.3
2018-05-25T10:00:30.351Z,56.3
2018-05-25T10:05:27.465Z,56.3
2018-05-25T10:10:24.807Z,56.2
2018-05-25T10:15:21.789Z,56.2
2018-05-25T10:20:18.984Z,56.2
2018-05-25T10:25:16.307Z,56.2
2018-05-25T10:30:13.522Z,56.2
2018-05-25T10:35:10.884Z,56.2
2018-05-25T10:40:08.223Z,56.2
2018-05-25T10:45:05.521Z,56.2
2018-05-25T10:50:02.728Z,56.2
2018-05-25T10:54:59.993Z,56.2
2018-05-25T10:59:57.536Z,56.2
2018-05-25T11:04:54.993Z,56
2018-05-25T11:09:52.317Z,56.1
2018-05-25T11:14:49.643Z,56.1
2018-05-25T11:19:46.662Z,56.1
2018-05-25T11:24:44.173Z,56
2018-05-25T11:29:41.562Z,56
2018-05-25T11:34:38.946Z,55.8
2018-05-25T11:39:36.243Z,55.8
2018-05-25T11:44:33.636Z,55.7
2018-05-25T11:49:30.961Z,55.5
2018-05-25T11:54:28.319Z,55.5
2018-05-25T11:59:25.874Z,55.6
2018-05-25T12:04:23.374Z,55.6
2018-05-25T12:09:20.841Z,55.7
2018-05-25T12:14:18.337Z,55.7
2018-05-25T12:19:15.670Z,55.8
2018-05-25T12:24:13.079Z,55.7
2018-05-25T12:29:10.528Z,55.7
2018-05-25T12:34:07.609Z,55.7
2018-05-25T12:39:05.640Z,55.7
2018-05-25T12:44:03.032Z,55.6
2018-05-25T12:49:00.263Z,55.6
2018-05-25T12:53:57.363Z,55.6
2018-05-25T12:58:54.851Z,55.5
2018-05-25T13:03:52.062Z,55.5
2018-05-25T13:08:49.365Z,55.5
2018-05-25T13:13:46.867Z,55.5
2018-05-25T13:18:44.161Z,55.5
2018-05-25T13:23:41.381Z,55.4
2018-05-25T13:28:38.576Z,55.4
2018-05-25T13:33:35.848Z,55.4
2018-05-25T13:38:32.993Z,55.4
2018-05-25T13:43:30.538Z,55.3
2018-05-25T13:48:27.687Z,55.3
2018-05-25T13:53:25.127Z,55.4
2018-05-25T13:58:22.252Z,55.4
2018-05-25T14:03:19.764Z,55.4
2018-05-25T14:08:17.099Z,55.3
2018-05-25T14:13:14.557Z,55.3
2018-05-25T14:18:11.895Z,55.3
2018-05-25T14:23:09.239Z,55.2
2018-05-25T14:28:06.555Z,55.2
2018-05-25T14:33:03.690Z,55.1
2018-05-25T14:38:01.102Z,55
2018-05-25T14:42:58.525Z,55
2018-05-25T14:47:55.488Z,54.9
2018-05-25T14:52:52.715Z,54.9
2018-05-25T14:57:49.831Z,54.9
2018-05-25T15:02:47.175Z,54.9
2018-05-25T15:07:44.486Z,54.8
2018-05-25T15:12:41.244Z,54.8
2018-05-25T15:17:38.251Z,54.9
2018-05-25T15:22:35.595Z,54.8
2018-05-25T15:27:32.790Z,54.7
2018-05-25T15:32:30.234Z,54.7
2018-05-25T15:37:27.250Z,54.7
2018-05-25T15:42:24.261Z,54.6
2018-05-25T15:47:21.782Z,54.6
2018-05-25T15:52:19.323Z,54.5
2018-05-25T15:57:16.106Z,54.5
2018-05-25T16:02:13.632Z,54.5
2018-05-25T16:07:10.899Z,54.5
2018-05-25T16:12:08.318Z,54.5
2018-05-25T16:17:05.639Z,54.5
2018-05-25T16:22:02.970Z,54.5
2018-05-25T16:27:00.282Z,54.5
2018-05-25T16:31:57.361Z,54.5
2018-05-25T16:36:54.634Z,54.4
2018-05-25T16:41:51.987Z,54.4
2018-05-25T16:46:49.080Z,54.4
2018-05-25T16:51:46.470Z,54.5
2018-05-25T16:56:44.831Z,54.4
2018-05-25T17:01:41.885Z,54.4
2018-05-25T17:06:38.509Z,54.4
2018-05-25T17:11:35.871Z,54.4
2018-05-25T17:16:33.212Z,54.4
2018-05-25T17:21:30.311Z,54.4
2018-05-25T17:26:27.738Z,54.5
2018-05-25T17:31:25.236Z,54.4
2018-05-25T17:36:22.529Z,54.4
2018-05-25T17:41:19.823Z,54.4
2018-05-25T17:46:17.409Z,54.4
2018-05-25T17:51:14.718Z,54.4
2018-05-25T17:56:12.101Z,54.4
2018-05-25T18:01:09.277Z,54.3
2018-05-25T18:06:06.410Z,54.3
2018-05-25T18:11:03.769Z,54.3
2018-05-25T18:16:01.084Z,54.4
2018-05-25T18:20:58.405Z,54.3
2018-05-25T18:25:55.430Z,54.3
2018-05-25T18:30:52.799Z,54.3
2018-05-25T18:35:50.333Z,54.1
2018-05-25T18:40:47.288Z,53.9
2018-05-25T18:45:44.669Z,53.8
2018-05-25T18:50:41.965Z,53.8
2018-05-25T18:55:39.407Z,54
2018-05-25T19:00:36.639Z,54
2018-05-25T19:05:34.083Z,53.9
2018-05-25T19:10:31.153Z,53.9
2018-05-25T19:15:28.288Z,53.7
2018-05-25T19:20:25.950Z,53.5
2018-05-25T19:25:23.001Z,53.4
2018-05-25T19:30:20.348Z,53.4
2018-05-25T19:35:18.093Z,53.7
2018-05-25T19:40:15.549Z,53.7
2018-05-25T19:45:13.062Z,53.7
2018-05-25T19:50:10.380Z,53.7
2018-05-25T19:55:07.620Z,53.6
2018-05-25T20:00:04.676Z,53.4
2018-05-25T20:05:02.021Z,53.2
2018-05-25T20:09:59.386Z,53.2
2018-05-25T20:14:57.227Z,53.2
2018-05-25T20:19:54.360Z,53.5
2018-05-25T20:24:51.657Z,53.4
2018-05-25T20:29:48.703Z,53.4
2018-05-25T20:34:45.987Z,53.4
2018-05-25T20:39:43.583Z,53.5
2018-05-25T20:44:40.632Z,53.4
2018-05-25T20:49:37.792Z,53.4
2018-05-25T20:54:35.013Z,53.4
2018-05-25T20:59:32.251Z,53.4
2018-05-25T21:04:29.937Z,53.3
2018-05-25T21:09:27.249Z,53.3
2018-05-25T21:14:23.913Z,53.3
2018-05-25T21:19:21.257Z,53.3
2018-05-25T21:24:18.639Z,53.3
2018-05-25T21:29:15.867Z,53.3
2018-05-25T21:34:13.214Z,53.3
2018-05-25T21:39:10.527Z,53.3
2018-05-25T21:44:08.157Z,53.3
2018-05-25T21:49:05.313Z,53.2
2018-05-25T21:54:02.815Z,53.2
2018-05-25T21:59:00.003Z,53.2
2018-05-25T22:03:57.365Z,53.2
2018-05-25T22:08:54.700Z,53.2
2018-05-25T22:13:51.912Z,53.2
2018-05-25T22:18:49.222Z,53.2
2018-05-25T22:23:47.549Z,53.1
2018-05-25T22:28:44.508Z,53
2018-05-25T22:33:41.681Z,53
2018-05-25T22:38:38.607Z,53
2018-05-25T22:43:35.770Z,53
2018-05-25T22:48:32.908Z,53.1
2018-05-25T22:53:30.165Z,53
2018-05-25T22:58:27.465Z,53.1
2018-05-25T23:03:24.494Z,53.1
2018-05-25T23:08:21.612Z,53
2018-05-25T23:13:18.869Z,52.9
2018-05-25T23:18:15.824Z,52.9
2018-05-25T23:23:13.220Z,52.9
2018-05-25T23:28:10.364Z,53
2018-05-25T23:33:07.658Z,53
2018-05-25T23:38:04.992Z,53
2018-05-25T23:43:02.231Z,53
2018-05-25T23:47:59.038Z,53
2018-05-25T23:52:56.280Z,52.9
2018-05-25T23:57:53.570Z,52.9
